Time;durP1;ratioP1;P1;durP2;ratioP2;P2;SDS_P1;SDS_P2;PMS_P1;PMS_P2;Temp;Humidity;BMP_temperature;BMP_pressure;BME280_temperature;BME280_humidity;BME280_pressure;Samples;Min_cycle;Max_cycle;Signal;HPM_P1;HPM_P2
2022/09/16 00:02:09;;;;;;;4.33;1.00;;;19.00;99.90;;;;;;1922056;73;21211;-85
2022/09/16 00:05:00;;;;;;;2.37;1.00;;;19.00;99.90;;;;;;1940225;73;21078;-83
2022/09/16 00:07:52;;;;;;;2.40;1.10;;;19.00;99.90;;;;;;1923624;73;21161;-83
2022/09/16 00:10:43;;;;;;;1.80;1.15;;;19.00;99.90;;;;;;1921852;73;21066;-83
2022/09/16 00:16:19;;;;;;;3.27;1.20;;;19.00;99.90;;;;;;1930338;72;22227;-84
2022/09/16 00:19:11;;;;;;;2.67;0.90;;;19.00;99.90;;;;;;1891094;75;21087;-87
2022/09/16 00:22:02;;;;;;;2.08;0.82;;;19.00;99.90;;;;;;1885289;75;21118;-87
2022/09/16 00:27:33;;;;;;;1.90;0.85;;;19.00;99.90;;;;;;1943441;72;22275;-86
2022/09/16 00:33:08;;;;;;;2.37;0.90;;;18.90;99.90;;;;;;1923088;72;22228;-86
2022/09/16 00:36:11;;;;;;;5.33;1.12;;;18.90;99.90;;;;;;1892132;73;21204;-85
2022/09/16 00:39:03;;;;;;;1.98;1.35;;;18.90;99.90;;;;;;1895842;73;21133;-82
2022/09/16 00:41:55;;;;;;;1.82;1.07;;;18.90;99.90;;;;;;1908547;75;21130;-81
2022/09/16 00:44:56;;;;;;;2.92;1.05;;;18.90;99.90;;;;;;1899914;75;21100;-82
2022/09/16 00:47:51;;;;;;;2.75;1.10;;;18.90;99.90;;;;;;1907528;73;21049;-82
2022/09/16 00:50:45;;;;;;;3.77;1.30;;;18.90;99.90;;;;;;1937941;73;21647;-81
2022/09/16 00:56:16;;;;;;;1.92;0.98;;;19.00;99.90;;;;;;1947291;72;22370;-81
2022/09/16 00:59:11;;;;;;;2.67;1.35;;;19.00;99.90;;;;;;1911955;73;21251;-82
2022/09/16 01:02:05;;;;;;;1.65;1.10;;;19.00;99.90;;;;;;1897247;75;21043;-83
2022/09/16 01:04:59;;;;;;;2.10;1.35;;;19.00;99.90;;;;;;1902165;75;21138;-83
2022/09/16 01:07:52;;;;;;;2.22;1.10;;;19.00;99.90;;;;;;1884499;75;21117;-83
2022/09/16 01:10:44;;;;;;;2.50;1.02;;;19.00;99.90;;;;;;1905700;75;21160;-82
2022/09/16 01:16:17;;;;;;;2.08;1.10;;;19.00;99.90;;;;;;1932519;72;22142;-83
2022/09/16 01:19:14;;;;;;;3.08;1.05;;;19.00;99.90;;;;;;1899207;75;21082;-83
2022/09/16 01:22:10;;;;;;;3.37;1.22;;;19.00;99.90;;;;;;1883965;76;21181;-79
2022/09/16 01:25:07;;;;;;;3.12;1.10;;;19.00;99.90;;;;;;1894202;75;21070;-84
2022/09/16 01:28:39;;;;;;;2.87;0.85;;;19.00;99.90;;;;;;1904437;74;21043;-84
2022/09/16 01:31:34;;;;;;;3.42;1.00;;;19.10;99.90;;;;;;1849869;75;21054;-85
2022/09/16 01:34:29;;;;;;;1.60;0.80;;;19.10;99.90;;;;;;1896693;75;21168;-84
2022/09/16 01:37:24;;;;;;;2.55;1.07;;;19.10;99.90;;;;;;1909990;75;21217;-84
2022/09/16 01:40:18;;;;;;;1.30;0.72;;;19.10;99.90;;;;;;1911340;75;21111;-84
2022/09/16 01:45:54;;;;;;;2.62;0.80;;;18.90;99.90;;;;;;1944817;72;22137;-84
2022/09/16 01:51:28;;;;;;;1.55;0.90;;;18.80;99.90;;;;;;1956793;72;22272;-83
2022/09/16 01:57:03;;;;;;;1.57;0.80;;;18.80;99.90;;;;;;1926832;72;22190;-83
2022/09/16 01:59:58;;;;;;;2.10;0.75;;;18.80;99.90;;;;;;1928083;74;21102;-85
2022/09/16 02:02:52;;;;;;;2.90;0.70;;;18.80;99.90;;;;;;1901066;75;21230;-85
2022/09/16 02:08:26;;;;;;;4.45;0.70;;;18.70;99.90;;;;;;1932049;72;22177;-86
2022/09/16 02:11:18;;;;;;;2.37;0.70;;;18.70;99.90;;;;;;1895219;75;21055;-85
2022/09/16 02:14:13;;;;;;;2.08;0.78;;;18.80;99.90;;;;;;1911873;75;21050;-85
2022/09/16 02:19:48;;;;;;;3.50;1.07;;;18.80;99.90;;;;;;1941893;72;22241;-84
2022/09/16 02:22:42;;;;;;;1.87;0.90;;;18.70;99.90;;;;;;1915956;74;21177;-85
2022/09/16 02:25:36;;;;;;;6.47;1.30;;;18.80;99.90;;;;;;1895215;75;21118;-84
2022/09/16 02:28:30;;;;;;;1.90;1.30;;;18.70;99.90;;;;;;1886679;75;21234;-84
2022/09/16 02:34:09;;;;;;;5.83;1.47;;;18.70;99.90;;;;;;1942143;72;22260;-84
2022/09/16 02:37:02;;;;;;;1.80;1.37;;;18.70;99.90;;;;;;1901472;75;21088;-84
2022/09/16 02:40:00;;;;;;;3.12;1.25;;;18.60;99.90;;;;;;1893393;75;21157;-84
2022/09/16 02:42:50;;;;;;;3.35;1.67;;;18.60;99.90;;;;;;1891912;75;21110;-86
2022/09/16 02:45:47;;;;;;;3.77;2.37;;;18.50;99.90;;;;;;1892392;75;21106;-85
2022/09/16 02:51:24;;;;;;;2.17;1.82;;;18.50;99.90;;;;;;1938465;72;22244;-84
2022/09/16 02:56:59;;;;;;;4.70;2.20;;;18.60;99.90;;;;;;1936230;72;22107;-81
2022/09/16 02:59:50;;;;;;;5.08;1.80;;;18.60;99.90;;;;;;1895838;75;21621;-81
2022/09/16 03:02:42;;;;;;;3.25;1.40;;;18.50;99.90;;;;;;1877339;75;21055;-81
2022/09/16 03:05:35;;;;;;;2.35;1.20;;;18.40;99.90;;;;;;1898403;75;21123;-81
2022/09/16 03:08:27;;;;;;;2.40;1.30;;;18.30;99.90;;;;;;1906284;75;21054;-82
2022/09/16 03:11:56;;;;;;;1.82;1.40;;;18.30;99.90;;;;;;1844017;77;21213;-82
2022/09/16 03:15:13;;;;;;;1.65;0.90;;;18.20;99.90;;;;;;1890158;75;21047;-82
2022/09/16 03:21:27;;;;;;;2.50;1.30;;;18.10;99.90;;;;;;1956203;72;22209;-82
2022/09/16 03:27:04;;;;;;;1.70;1.40;;;18.10;99.90;;;;;;1965745;72;22336;-85
2022/09/16 03:29:59;;;;;;;3.72;1.32;;;18.10;99.90;;;;;;1917710;75;21059;-86
2022/09/16 03:32:56;;;;;;;1.57;1.30;;;18.10;99.90;;;;;;1917735;75;21094;-87
2022/09/16 03:35:51;;;;;;;2.65;1.25;;;18.10;99.90;;;;;;1917759;73;21062;-88
2022/09/16 03:38:44;;;;;;;2.12;1.20;;;18.20;99.90;;;;;;1923238;73;21094;-94
2022/09/16 03:41:36;;;;;;;3.27;1.05;;;18.20;99.90;;;;;;1935451;74;21109;-87
2022/09/16 03:44:34;;;;;;;1.17;0.70;;;18.30;99.90;;;;;;1938751;73;21084;-83
2022/09/16 03:47:25;;;;;;;2.45;0.90;;;18.30;99.90;;;;;;1938205;73;21107;-89
2022/09/16 03:52:59;;;;;;;1.17;0.72;;;18.30;99.90;;;;;;1957903;72;22111;-86
2022/09/16 03:55:51;;;;;;;2.05;0.72;;;18.40;99.90;;;;;;1920149;74;21134;-85
2022/09/16 03:58:42;;;;;;;1.60;0.70;;;18.40;99.90;;;;;;1922437;74;21121;-85
2022/09/16 04:01:33;;;;;;;1.67;0.60;;;18.30;99.90;;;;;;1916884;74;21142;-85
2022/09/16 04:04:25;;;;;;;0.50;0.50;;;18.40;99.90;;;;;;1911320;74;21090;-84
2022/09/16 04:09:56;;;;;;;2.83;0.70;;;18.40;99.90;;;;;;1935551;72;22239;-85
2022/09/16 04:12:47;;;;;;;0.80;0.55;;;18.40;99.90;;;;;;1889041;75;21123;-85
2022/09/16 04:18:18;;;;;;;1.98;0.80;;;18.40;99.90;;;;;;1934376;72;22269;-86
2022/09/16 04:21:10;;;;;;;1.77;0.65;;;18.40;99.90;;;;;;1896075;74;21129;-86
2022/09/16 04:24:01;;;;;;;2.05;0.78;;;18.50;99.90;;;;;;1906978;75;21180;-87
2022/09/16 04:29:33;;;;;;;0.60;0.60;;;18.50;99.90;;;;;;1945235;72;22253;-85
2022/09/16 04:32:25;;;;;;;0.60;0.47;;;18.50;99.90;;;;;;1884823;75;21178;-85
2022/09/16 04:35:18;;;;;;;0.45;0.40;;;18.60;99.90;;;;;;1890476;75;21095;-85
2022/09/16 04:40:53;;;;;;;1.90;0.70;;;18.50;99.90;;;;;;1935061;73;22126;-83
2022/09/16 04:43:44;;;;;;;1.15;0.60;;;18.50;99.90;;;;;;1904885;74;21109;-85
2022/09/16 04:49:16;;;;;;;1.07;0.65;;;18.50;99.90;;;;;;1960435;72;22214;-85
2022/09/16 04:52:07;;;;;;;1.42;0.50;;;18.50;99.90;;;;;;1917661;75;21086;-84
2022/09/16 04:54:59;;;;;;;1.07;0.42;;;18.50;99.90;;;;;;1940988;73;21113;-83
2022/09/16 04:57:52;;;;;;;3.00;0.80;;;18.50;99.90;;;;;;1918063;73;21214;-83
2022/09/16 05:03:22;;;;;;;2.17;0.72;;;18.50;99.90;;;;;;1936615;72;22150;-82
2022/09/16 05:06:16;;;;;;;1.70;0.62;;;18.50;99.90;;;;;;1905073;75;21138;-82
2022/09/16 05:11:49;;;;;;;1.62;0.82;;;18.50;99.90;;;;;;1942873;72;22126;-84
2022/09/16 05:14:41;;;;;;;2.35;0.70;;;18.50;99.90;;;;;;1900981;75;21055;-84
2022/09/16 05:17:32;;;;;;;0.53;0.53;;;18.60;99.90;;;;;;1889490;75;21172;-82
2022/09/16 05:20:25;;;;;;;2.47;0.90;;;18.60;99.90;;;;;;1905560;75;21139;-83
2022/09/16 05:23:17;;;;;;;1.90;0.55;;;18.60;99.90;;;;;;1893937;75;21149;-88
2022/09/16 05:26:11;;;;;;;2.47;0.88;;;18.60;99.90;;;;;;1905608;75;21159;-82
2022/09/16 05:29:04;;;;;;;1.20;0.57;;;18.60;99.90;;;;;;1895859;75;21151;-81
2022/09/16 05:31:56;;;;;;;2.15;0.65;;;18.60;99.90;;;;;;1897195;75;21157;-83
2022/09/16 05:37:30;;;;;;;1.42;0.50;;;18.70;99.90;;;;;;1934168;72;22280;-83
2022/09/16 05:43:00;;;;;;;2.20;0.75;;;18.60;99.90;;;;;;1951156;72;22688;-80
2022/09/16 05:45:54;;;;;;;2.58;0.75;;;18.60;99.90;;;;;;1926348;73;21125;-82
2022/09/16 05:51:25;;;;;;;1.37;0.78;;;18.70;99.90;;;;;;1935196;72;22549;-81
2022/09/16 05:54:17;;;;;;;2.15;0.85;;;18.70;99.90;;;;;;1900548;73;21160;-81
2022/09/16 05:57:09;;;;;;;1.50;0.90;;;18.70;99.90;;;;;;1901156;75;21138;-81
2022/09/16 06:00:00;;;;;;;1.35;0.90;;;18.70;99.90;;;;;;1903554;75;21120;-83
2022/09/16 06:02:53;;;;;;;1.67;0.90;;;18.70;99.90;;;;;;1890295;75;21155;-84
2022/09/16 06:08:24;;;;;;;1.92;0.88;;;18.80;99.90;;;;;;1942198;72;22292;-83
2022/09/16 06:11:15;;;;;;;2.05;0.80;;;18.80;99.90;;;;;;1889150;75;21688;-82
2022/09/16 06:14:08;;;;;;;1.67;1.40;;;18.80;99.90;;;;;;1906470;75;21119;-82
2022/09/16 06:16:59;;;;;;;1.65;1.20;;;18.80;99.90;;;;;;1902325;73;21119;-83
2022/09/16 06:19:51;;;;;;;1.10;0.90;;;18.80;99.90;;;;;;1888779;73;21057;-83
2022/09/16 06:22:42;;;;;;;1.10;0.55;;;18.80;99.90;;;;;;1887795;73;21098;-83
2022/09/16 06:25:34;;;;;;;1.95;1.60;;;18.90;99.90;;;;;;1888720;75;21043;-84
2022/09/16 06:31:09;;;;;;;1.70;1.20;;;18.90;99.90;;;;;;1928425;72;22154;-83
2022/09/16 06:34:01;;;;;;;3.00;1.67;;;19.00;99.90;;;;;;1903276;75;21239;-85
2022/09/16 06:36:52;;;;;;;1.60;1.35;;;19.00;99.90;;;;;;1906287;75;21114;-83
2022/09/16 06:39:44;;;;;;;1.95;1.40;;;18.80;99.90;;;;;;1889951;75;21124;-83
2022/09/16 06:42:36;;;;;;;2.70;1.60;;;18.80;99.90;;;;;;1895383;75;21305;-83
2022/09/16 06:45:28;;;;;;;4.55;1.12;;;18.80;99.90;;;;;;1911697;75;21118;-82
2022/09/16 06:51:02;;;;;;;1.75;1.50;;;18.80;99.90;;;;;;1944640;72;23410;-83
2022/09/16 06:56:34;;;;;;;1.20;1.10;;;18.80;99.90;;;;;;1920297;72;22231;-82
2022/09/16 06:59:26;;;;;;;1.57;1.22;;;18.80;99.90;;;;;;1911578;75;21097;-82
2022/09/16 07:02:18;;;;;;;1.75;1.00;;;18.80;99.90;;;;;;1878368;75;21112;-82
2022/09/16 07:05:10;;;;;;;1.20;0.98;;;18.80;99.90;;;;;;1893586;75;21130;-83
2022/09/16 07:08:02;;;;;;;1.98;1.20;;;18.80;99.90;;;;;;1909936;75;21157;-82
2022/09/16 07:10:59;;;;;;;2.02;1.40;;;18.90;99.90;;;;;;1919869;73;21094;-81
2022/09/16 07:16:31;;;;;;;2.20;1.00;;;18.90;99.90;;;;;;1960748;72;22329;-84
2022/09/16 07:19:23;;;;;;;1.52;1.20;;;18.90;99.90;;;;;;1928036;73;21175;-84
2022/09/16 07:22:14;;;;;;;2.98;0.90;;;18.80;99.90;;;;;;1924597;73;21098;-83
2022/09/16 07:25:07;;;;;;;1.40;1.10;;;18.80;99.90;;;;;;1915711;74;21170;-75
2022/09/16 07:28:02;;;;;;;2.33;1.17;;;18.90;99.90;;;;;;1918052;73;21062;-84
2022/09/16 07:30:53;;;;;;;2.25;1.12;;;19.10;99.90;;;;;;1930156;73;21176;-80
2022/09/16 07:33:47;;;;;;;4.42;1.32;;;19.30;99.90;;;;;;1916387;73;21118;-80
2022/09/16 07:39:26;;;;;;;1.75;1.40;;;19.60;99.90;;;;;;1930046;72;22173;-78
2022/09/16 07:42:18;;;;;;;1.35;1.20;;;19.60;99.90;;;;;;1893218;75;21176;-80
2022/09/16 07:45:14;;;;;;;1.67;1.35;;;19.50;99.90;;;;;;1902791;75;21032;-81
2022/09/16 07:48:08;;;;;;;3.00;1.30;;;19.40;99.90;;;;;;1893224;75;21102;-79
2022/09/16 07:53:51;;;;;;;3.72;1.20;;;19.50;99.90;;;;;;1934983;72;22176;-80
2022/09/16 07:56:44;;;;;;;2.72;1.40;;;19.60;99.90;;;;;;1913463;74;21062;-82
2022/09/16 07:59:35;;;;;;;2.37;1.32;;;19.50;99.90;;;;;;1909466;75;21111;-83
2022/09/16 08:02:27;;;;;;;1.98;1.32;;;19.40;99.90;;;;;;1930135;74;21048;-83
2022/09/16 08:05:20;;;;;;;2.62;1.40;;;19.30;99.90;;;;;;1922535;74;21093;-83
2022/09/16 08:08:13;;;;;;;1.60;1.30;;;19.30;99.90;;;;;;1915445;73;21040;-82
2022/09/16 08:11:08;;;;;;;2.33;1.10;;;19.30;99.90;;;;;;1911289;75;21044;-85
2022/09/16 08:16:43;;;;;;;3.05;1.42;;;19.40;99.90;;;;;;1951999;72;22352;-84
2022/09/16 08:19:37;;;;;;;4.87;4.17;;;19.40;99.90;;;;;;1899644;73;21091;-84
2022/09/16 08:22:28;;;;;;;3.35;1.40;;;19.60;99.90;;;;;;1913007;73;21112;-78
2022/09/16 08:25:20;;;;;;;3.00;1.40;;;19.90;99.90;;;;;;1910328;73;21090;-79
2022/09/16 08:31:03;;;;;;;2.85;1.77;;;19.90;99.90;;;;;;1929747;72;22326;-78
2022/09/16 08:36:47;;;;;;;2.58;1.20;;;20.10;99.90;;;;;;1932774;72;22143;-80
2022/09/16 08:42:35;;;;;;;2.40;1.20;;;20.10;99.90;;;;;;1925179;72;22267;-79
2022/09/16 08:45:30;;;;;;;3.47;1.40;;;20.10;99.90;;;;;;1886517;73;21240;-79
2022/09/16 08:51:08;;;;;;;1.90;1.37;;;20.00;99.90;;;;;;1935348;72;22684;-82
2022/09/16 08:54:08;;;;;;;2.47;1.45;;;20.10;99.90;;;;;;1894978;73;21162;-82
2022/09/16 08:57:01;;;;;;;96.40;79.20;;;20.30;99.90;;;;;;1902413;75;21055;-76
2022/09/16 09:02:42;;;;;;;1.85;1.37;;;20.50;99.90;;;;;;1946212;72;22193;-84
2022/09/16 09:05:39;;;;;;;2.90;1.47;;;20.50;99.90;;;;;;1910295;73;21090;-84
2022/09/16 09:08:40;;;;;;;1.42;1.20;;;20.40;99.90;;;;;;1906011;74;21204;-84
2022/09/16 09:15:10;;;;;;;1.70;1.40;;;20.40;99.90;;;;;;1948106;72;22164;-83
2022/09/16 09:18:16;;;;;;;2.12;1.40;;;20.50;99.90;;;;;;1933303;73;21097;-84
2022/09/16 09:24:25;;;;;;;2.08;1.37;;;20.70;99.90;;;;;;1940894;72;22190;-87
2022/09/16 09:27:19;;;;;;;2.67;1.50;;;20.70;99.90;;;;;;1922994;73;21126;-87
2022/09/16 09:30:16;;;;;;;2.60;1.30;;;20.80;99.90;;;;;;1923166;73;21069;-84
2022/09/16 09:36:04;;;;;;;2.15;1.62;;;20.80;99.90;;;;;;1940306;72;22241;-80
2022/09/16 09:39:15;;;;;;;3.37;1.52;;;20.70;99.90;;;;;;1919816;73;21123;-92
2022/09/16 09:42:11;;;;;;;2.30;1.40;;;20.70;99.90;;;;;;1921066;73;21097;-81
2022/09/16 09:47:48;;;;;;;1.30;1.20;;;20.50;99.90;;;;;;1916589;72;22240;-80
2022/09/16 09:50:43;;;;;;;2.52;1.62;;;20.40;99.90;;;;;;1887582;74;21058;-83
2022/09/16 09:56:18;;;;;;;1.60;1.50;;;20.50;99.90;;;;;;1927745;72;22684;-74
2022/09/16 09:59:14;;;;;;;2.17;1.50;;;20.60;99.90;;;;;;1916833;75;21119;-74
2022/09/16 10:02:13;;;;;;;1.98;1.50;;;20.60;99.90;;;;;;1924040;73;21631;-75
2022/09/16 10:05:06;;;;;;;3.05;1.55;;;20.70;99.90;;;;;;1901710;75;21359;-75
2022/09/16 10:08:01;;;;;;;3.60;1.40;;;20.80;99.90;;;;;;1894223;75;21209;-75
2022/09/16 10:10:55;;;;;;;2.40;1.30;;;20.70;99.90;;;;;;1894843;73;21106;-76
2022/09/16 10:16:32;;;;;;;3.22;1.55;;;20.90;99.90;;;;;;1938588;72;22151;-75
2022/09/16 10:22:11;;;;;;;2.15;1.80;;;21.00;99.90;;;;;;1925112;72;22188;-74
2022/09/16 10:25:05;;;;;;;2.05;1.72;;;21.00;99.90;;;;;;1893643;73;21698;-75
2022/09/16 10:27:59;;;;;;;2.22;1.80;;;21.20;99.90;;;;;;1890613;75;21164;-75
2022/09/16 10:30:53;;;;;;;2.15;1.50;;;21.30;99.90;;;;;;1881762;75;21095;-75
2022/09/16 10:33:45;;;;;;;4.50;1.50;;;21.30;99.90;;;;;;1889741;75;21107;-75
2022/09/16 10:39:25;;;;;;;1.90;1.70;;;21.30;99.90;;;;;;1945907;72;22662;-75
2022/09/16 10:42:22;;;;;;;2.47;1.40;;;21.30;99.90;;;;;;1892983;75;21785;-75
2022/09/16 10:45:19;;;;;;;2.85;1.60;;;21.30;99.90;;;;;;1890885;75;21164;-75
2022/09/16 10:48:15;;;;;;;3.08;1.50;;;21.20;99.90;;;;;;1901077;75;21778;-75
2022/09/16 10:51:12;;;;;;;3.65;1.40;;;21.10;99.90;;;;;;1911421;75;21258;-76
2022/09/16 10:54:07;;;;;;;2.33;1.30;;;21.10;99.90;;;;;;1886913;75;21169;-80
2022/09/16 10:56:59;;;;;;;1.72;1.30;;;21.10;99.90;;;;;;1887135;75;21063;-81
2022/09/16 11:03:06;;;;;;;1.98;1.30;;;21.20;99.90;;;;;;1935546;72;22619;-79
2022/09/16 11:06:10;;;;;;;2.20;1.30;;;21.20;99.90;;;;;;1892918;75;21127;-80
2022/09/16 11:09:08;;;;;;;3.52;1.57;;;21.30;99.90;;;;;;1899909;75;21207;-81
2022/09/16 11:12:13;;;;;;;2.72;1.17;;;21.50;99.90;;;;;;1898806;73;21130;-80
2022/09/16 11:17:55;;;;;;;3.15;1.60;;;21.50;99.90;;;;;;1946934;72;22157;-80
2022/09/16 11:21:01;;;;;;;2.90;1.70;;;21.60;99.90;;;;;;1908169;75;21055;-79
2022/09/16 11:24:08;;;;;;;1.98;1.42;;;21.70;99.90;;;;;;1902627;73;21183;-83
2022/09/16 11:29:56;;;;;;;1.90;1.55;;;21.50;99.90;;;;;;1953904;72;22286;-77
2022/09/16 11:33:05;;;;;;;2.12;1.90;;;21.50;99.90;;;;;;1885400;75;21164;-77
2022/09/16 11:36:20;;;;;;;3.92;1.62;;;21.60;99.90;;;;;;1915496;75;21156;-77
2022/09/16 11:39:23;;;;;;;3.25;1.37;;;21.60;99.90;;;;;;1906077;73;21122;-79
2022/09/16 11:42:19;;;;;;;1.50;1.07;;;21.60;99.90;;;;;;1908204;75;21197;-78
2022/09/16 11:45:24;;;;;;;1.50;1.35;;;21.50;99.90;;;;;;1896505;73;21062;-79
2022/09/16 11:48:31;;;;;;;1.62;1.30;;;21.60;99.90;;;;;;1892764;75;21122;-78
2022/09/16 11:51:32;;;;;;;2.05;1.50;;;21.70;99.90;;;;;;1903698;75;21050;-81
2022/09/16 11:54:32;;;;;;;2.90;1.50;;;21.70;99.90;;;;;;1891923;73;21121;-80
2022/09/16 11:57:27;;;;;;;1.32;1.20;;;21.70;99.90;;;;;;1883756;76;21272;-81
2022/09/16 12:00:19;;;;;;;3.35;1.60;;;21.80;99.90;;;;;;1905559;75;21125;-82
2022/09/16 12:03:14;;;;;;;3.22;1.55;;;21.90;99.90;;;;;;1909899;75;21074;-83
2022/09/16 12:06:10;;;;;;;1.60;1.30;;;21.90;99.90;;;;;;1890346;75;21098;-79
2022/09/16 12:09:04;;;;;;;2.92;1.70;;;21.80;99.90;;;;;;1899898;75;21070;-77
2022/09/16 12:12:01;;;;;;;3.15;1.57;;;21.80;99.90;;;;;;1892121;75;21667;-78
2022/09/16 12:14:56;;;;;;;2.22;1.50;;;21.90;99.90;;;;;;1906488;73;21115;-79
2022/09/16 12:17:53;;;;;;;3.52;1.37;;;21.90;99.90;;;;;;1900608;75;21117;-79
2022/09/16 12:20:48;;;;;;;1.70;1.40;;;22.00;99.90;;;;;;1894369;75;21204;-80
2022/09/16 12:23:44;;;;;;;1.80;1.32;;;22.10;99.90;;;;;;1900456;75;21106;-79
2022/09/16 12:26:38;;;;;;;3.02;1.45;;;22.20;99.90;;;;;;1894442;75;21236;-80
2022/09/16 12:29:33;;;;;;;1.57;1.00;;;22.30;99.90;;;;;;1899320;75;21207;-74
2022/09/16 12:32:28;;;;;;;1.57;1.37;;;22.50;99.90;;;;;;1892953;75;21136;-75
2022/09/16 12:35:24;;;;;;;3.40;1.77;;;22.50;99.90;;;;;;1935475;73;21081;-75
2022/09/16 12:38:18;;;;;;;3.10;1.60;;;22.50;99.90;;;;;;1884039;75;21131;-81
2022/09/16 12:41:20;;;;;;;3.87;1.40;;;22.60;99.90;;;;;;1897737;75;21034;-82
2022/09/16 12:44:41;;;;;;;1.65;1.42;;;22.80;99.90;;;;;;1896582;73;21180;-81
2022/09/16 12:47:55;;;;;;;4.65;1.52;;;22.80;99.90;;;;;;1901132;75;21099;-82
2022/09/16 12:50:53;;;;;;;4.22;1.90;;;22.80;99.90;;;;;;1896809;75;21110;-81
2022/09/16 12:54:19;;;;;;;1.82;1.50;;;22.90;99.90;;;;;;1897854;75;21132;-81
2022/09/16 12:57:19;;;;;;;3.02;1.67;;;23.00;99.90;;;;;;1895049;75;21111;-84
2022/09/16 13:00:21;;;;;;;2.67;1.60;;;23.00;99.90;;;;;;1907014;75;21183;-81
2022/09/16 13:03:16;;;;;;;2.87;1.30;;;22.90;99.90;;;;;;1904764;75;21768;-81
2022/09/16 13:06:16;;;;;;;3.15;1.60;;;22.90;99.90;;;;;;1900631;73;21110;-81
2022/09/16 13:09:20;;;;;;;1.98;1.40;;;23.00;99.90;;;;;;1903046;75;21155;-81
2022/09/16 13:12:21;;;;;;;2.45;1.70;;;23.00;99.90;;;;;;1895485;75;21153;-80
2022/09/16 13:15:28;;;;;;;1.40;1.30;;;23.30;99.90;;;;;;1887758;73;21119;-80
2022/09/16 13:18:26;;;;;;;1.55;1.30;;;23.40;99.90;;;;;;1882433;76;21188;-80
2022/09/16 13:21:24;;;;;;;3.52;1.30;;;23.20;99.90;;;;;;1905299;75;21667;-80
2022/09/16 13:24:18;;;;;;;1.45;1.30;;;23.10;99.90;;;;;;1894991;73;21487;-80
2022/09/16 13:27:28;;;;;;;3.83;1.57;;;23.10;99.90;;;;;;1890080;75;21538;-81
2022/09/16 13:30:34;;;;;;;10.03;8.98;;;23.00;99.90;;;;;;1920338;74;21114;-78
2022/09/16 13:33:29;;;;;;;1.60;1.50;;;23.10;99.90;;;;;;1893064;76;21102;-87
2022/09/16 13:36:34;;;;;;;3.42;1.40;;;22.90;99.90;;;;;;1900257;73;21078;-84
2022/09/16 13:39:32;;;;;;;3.05;1.62;;;22.90;99.90;;;;;;1893401;76;21220;-91
2022/09/16 13:42:24;;;;;;;2.83;1.40;;;23.00;99.90;;;;;;1913393;74;21525;-83
2022/09/16 13:45:34;;;;;;;1.82;1.40;;;22.90;99.90;;;;;;1906177;73;21124;-83
2022/09/16 13:48:39;;;;;;;1.70;1.27;;;22.80;99.90;;;;;;1896869;74;21148;-82
2022/09/16 13:51:33;;;;;;;2.30;1.85;;;22.90;99.90;;;;;;1892851;74;21639;-81
2022/09/16 13:54:32;;;;;;;2.45;1.30;;;22.80;99.90;;;;;;1923236;73;21168;-82
2022/09/16 13:58:01;;;;;;;2.40;1.45;;;22.50;99.90;;;;;;1893053;74;21062;-81
2022/09/16 14:00:58;;;;;;;2.15;1.40;;;22.30;99.90;;;;;;1902585;74;21051;-81
2022/09/16 14:03:56;;;;;;;1.92;1.70;;;22.30;99.90;;;;;;1898015;74;21490;-81
2022/09/16 14:06:59;;;;;;;5.67;2.22;;;22.40;99.90;;;;;;1908764;74;22246;-80
2022/09/16 14:09:54;;;;;;;3.05;1.60;;;22.30;99.90;;;;;;1907342;73;21164;-86
2022/09/16 14:12:51;;;;;;;2.05;1.70;;;22.10;99.90;;;;;;1900715;74;21163;-85
2022/09/16 14:15:45;;;;;;;2.02;1.15;;;21.80;99.90;;;;;;1901808;74;21089;-82
2022/09/16 14:18:37;;;;;;;2.72;1.77;;;21.60;99.90;;;;;;1907155;74;21090;-82
2022/09/16 14:21:28;;;;;;;3.58;1.70;;;21.50;99.90;;;;;;1906214;74;21160;-81
2022/09/16 14:24:21;;;;;;;2.35;1.80;;;21.50;99.90;;;;;;1916348;73;21589;-83
2022/09/16 14:27:22;;;;;;;2.83;1.57;;;21.60;99.90;;;;;;1911551;74;21051;-82
2022/09/16 14:30:17;;;;;;;6.30;2.15;;;21.60;99.90;;;;;;1900428;74;21122;-83
2022/09/16 14:33:08;;;;;;;3.52;1.77;;;21.50;99.90;;;;;;1894779;75;21179;-79
2022/09/16 14:36:01;;;;;;;4.55;1.60;;;21.40;99.90;;;;;;1903116;74;21106;-81
2022/09/16 14:38:56;;;;;;;2.22;1.50;;;21.40;99.90;;;;;;1899784;75;21086;-89
2022/09/16 14:41:51;;;;;;;3.35;1.67;;;21.50;99.90;;;;;;1905313;75;21233;-82
2022/09/16 14:44:45;;;;;;;2.27;1.72;;;21.50;99.90;;;;;;1894853;75;21162;-81
2022/09/16 14:47:39;;;;;;;3.52;1.40;;;21.70;99.90;;;;;;1893552;75;21110;-78
2022/09/16 14:53:27;;;;;;;2.00;1.32;;;21.70;99.90;;;;;;1951688;72;22179;-81
2022/09/16 14:56:20;;;;;;;2.98;1.65;;;21.90;99.90;;;;;;1916841;75;21485;-84
2022/09/16 15:01:54;;;;;;;3.67;1.67;;;21.70;99.90;;;;;;1944982;72;22155;-85
2022/09/16 15:04:47;;;;;;;2.08;1.55;;;21.80;99.90;;;;;;1921643;74;21150;-84
2022/09/16 15:07:41;;;;;;;3.58;1.62;;;22.10;99.90;;;;;;1914999;74;21164;-86
2022/09/16 15:10:34;;;;;;;2.35;1.45;;;22.50;99.90;;;;;;1915377;73;21194;-82
2022/09/16 15:13:31;;;;;;;2.67;1.55;;;23.50;99.90;;;;;;1895033;75;21577;-83
2022/09/16 15:16:25;;;;;;;3.90;1.70;;;23.90;99.90;;;;;;1909237;75;21111;-79
2022/09/16 15:22:17;;;;;;;3.15;1.60;;;24.40;99.90;;;;;;1945985;72;22133;-83
2022/09/16 15:25:20;;;;;;;3.30;1.45;;;24.40;99.90;;;;;;1916402;73;21111;-82
2022/09/16 15:28:19;;;;;;;3.47;1.60;;;23.40;99.90;;;;;;1916620;75;21106;-83
2022/09/16 15:31:11;;;;;;;1.92;1.50;;;23.00;99.90;;;;;;1916469;75;21225;-83
2022/09/16 15:34:05;;;;;;;2.50;1.55;;;23.80;99.90;;;;;;1924064;73;21146;-83
2022/09/16 15:36:58;;;;;;;2.17;1.30;;;24.00;99.90;;;;;;1925071;73;21076;-81
2022/09/16 15:39:49;;;;;;;2.22;1.47;;;23.60;99.90;;;;;;1922729;73;21137;-81
2022/09/16 15:42:41;;;;;;;5.22;2.00;;;23.00;99.90;;;;;;1935683;73;21195;-80
2022/09/16 15:45:33;;;;;;;3.17;1.70;;;22.30;99.90;;;;;;1916347;73;21086;-80
2022/09/16 15:51:21;;;;;;;1.25;1.07;;;22.30;99.90;;;;;;1962239;72;20281;-84
2022/09/16 15:54:20;;;;;;;3.08;1.65;;;22.00;99.90;;;;;;1884053;73;21187;-83
2022/09/16 15:57:15;;;;;;;5.05;2.17;;;21.70;99.90;;;;;;1909447;75;21075;-80
2022/09/16 16:00:11;;;;;;;2.60;1.50;;;21.20;99.90;;;;;;1903297;75;21102;-82
2022/09/16 16:03:07;;;;;;;3.30;1.47;;;21.10;99.90;;;;;;1912139;73;21163;-80
2022/09/16 16:05:58;;;;;;;2.67;1.52;;;21.00;99.90;;;;;;1900946;75;21091;-79
2022/09/16 16:08:51;;;;;;;3.05;1.90;;;21.10;99.90;;;;;;1894581;73;21691;-80
2022/09/16 16:11:43;;;;;;;2.35;1.72;;;21.20;99.90;;;;;;1915766;73;21090;-79
2022/09/16 16:14:36;;;;;;;2.08;1.55;;;21.10;99.90;;;;;;1895260;75;21082;-79
2022/09/16 16:17:27;;;;;;;1.50;1.40;;;21.10;99.90;;;;;;1893324;75;22282;-77
2022/09/16 16:20:23;;;;;;;12.35;9.83;;;21.00;99.90;;;;;;1893480;75;21123;-89
2022/09/16 16:23:15;;;;;;;2.83;1.70;;;21.00;99.90;;;;;;1891259;73;21125;-78
2022/09/16 16:26:09;;;;;;;3.50;1.98;;;21.10;99.90;;;;;;1888952;73;21162;-76
2022/09/16 16:29:01;;;;;;;2.35;1.82;;;21.00;99.90;;;;;;1895779;75;21139;-76
2022/09/16 16:32:05;;;;;;;2.70;1.75;;;21.00;99.90;;;;;;1886160;75;21189;-75
2022/09/16 16:34:57;;;;;;;3.58;1.75;;;20.90;99.90;;;;;;1902450;75;21177;-80
2022/09/16 16:37:49;;;;;;;1.90;1.70;;;20.80;99.90;;;;;;1892934;73;21105;-82
2022/09/16 16:40:42;;;;;;;4.05;1.72;;;20.70;99.90;;;;;;1900991;75;21242;-75
2022/09/16 16:43:33;;;;;;;2.25;1.52;;;20.70;99.90;;;;;;1912564;75;21155;-78
2022/09/16 16:46:26;;;;;;;2.87;1.80;;;20.70;99.90;;;;;;1896137;75;21179;-79
2022/09/16 16:49:18;;;;;;;2.67;2.02;;;20.70;99.90;;;;;;1915395;73;21072;-79
2022/09/16 16:52:09;;;;;;;2.77;1.70;;;20.60;99.90;;;;;;1879797;76;21079;-79
2022/09/16 16:55:01;;;;;;;2.47;1.75;;;20.50;99.90;;;;;;1875705;75;21099;-79
2022/09/16 16:57:52;;;;;;;2.65;1.60;;;20.40;99.90;;;;;;1880190;75;21179;-79
2022/09/16 17:00:44;;;;;;;3.22;1.52;;;20.40;99.90;;;;;;1859986;76;21166;-78
2022/09/16 17:03:36;;;;;;;3.92;1.55;;;20.30;99.90;;;;;;1859587;76;21192;-77
2022/09/16 17:06:28;;;;;;;1.98;1.52;;;20.20;99.90;;;;;;1851488;76;21061;-78
2022/09/16 17:09:20;;;;;;;2.30;1.60;;;20.10;99.90;;;;;;1875942;75;21050;-79
2022/09/16 17:12:12;;;;;;;2.67;1.82;;;20.20;99.90;;;;;;1863370;76;21178;-77
2022/09/16 17:15:04;;;;;;;2.77;1.67;;;20.20;99.90;;;;;;1870750;76;21115;-78
2022/09/16 17:17:55;;;;;;;2.85;1.45;;;20.20;99.90;;;;;;1880088;75;21163;-78
2022/09/16 17:20:46;;;;;;;2.87;1.67;;;20.10;99.90;;;;;;1880348;76;21043;-78
2022/09/16 17:23:39;;;;;;;5.67;1.67;;;20.00;99.90;;;;;;1870857;76;21081;-77
2022/09/16 17:26:30;;;;;;;3.05;2.02;;;19.90;99.90;;;;;;1867139;76;21220;-77
2022/09/16 17:29:21;;;;;;;2.65;1.75;;;19.90;99.90;;;;;;1880465;75;21081;-77
2022/09/16 17:32:13;;;;;;;2.75;1.57;;;19.90;99.90;;;;;;1872583;76;21187;-77
2022/09/16 17:35:05;;;;;;;2.52;1.35;;;19.90;99.90;;;;;;1867762;76;21105;-79
2022/09/16 17:37:57;;;;;;;1.80;1.50;;;20.00;99.90;;;;;;1881181;75;21114;-78
2022/09/16 17:40:48;;;;;;;2.50;1.65;;;19.90;99.90;;;;;;1878559;75;21051;-77